Bellevue, WA

11:57 AM PDT on August 29, 2014 (GMT -0700)
Bellevue - Downtown Park | Change Station
CLOSE
Current Station
Personal Weather Station
Location: Bellevue, WA
Elevation: 100 ft
Nearby Weather Stations

Elev 100 ft 47.61 °N, 122.20 °W | Updated 10 seconds ago

Overcast
Overcast
65.6 °F
Feels Like 65.6 °F
N
1.0
Wind Variable Wind from WSW
Gusts 4.0 mph

Today
High -- | Low -- °F
--% Chance of Precip.
Yesterday
High -- | Low -- °F
Precip. -- in
6:23 AM 7:54 PM
Waxing Crescent, 16% visible
Pressure 29.99 in
Visibility 10.0 miles
Clouds Scattered Clouds 6000 ft
Mostly Cloudy 14000 ft
Dew Point 57 °F
Humidity 73%
Rainfall 0.00 in
Snow Depth Not available.
UV 3 out of 12
Pollen 2.40 out of 12
Air Quality Not available.
Flu Activity Not available.
METAR KBFI 291753Z 20007KT 10SM SCT060 BKN140 19/11 A2999 RMK AO2 SLP155 T01940111 10194 20161 53003

More Conditions Fewer Conditions

Pressure 29.99 in
Visibility 10.0 miles
Clouds Scattered Clouds 6000 ft
Mostly Cloudy 14000 ft
Dew Point 57 °F
Humidity 73%
Rainfall 0.00 in
Snow Depth Not available.
UV 3 out of 12
Pollen 2.40 out of 12
Air Quality Not available.
Flu Activity Not available.
METAR KBFI 291753Z 20007KT 10SM SCT060 BKN140 19/11 A2999 RMK AO2 SLP155 T01940111 10194 20161 53003

More Conditions Fewer Conditions

10-Day Weather Forecast

Almanac

Astronomy

Aug. 29, 2014 Rise Set
Actual Time 6:23 AM PDT 7:54 PM PDT
Civil Twilight 5:51 AM PDT 8:27 PM PDT
Nautical Twilight 5:12 AM PDT 9:06 PM PDT
Astronomical Twilight 4:29 AM PDT 9:48 PM PDT
Moon 10:37 AM PDT 9:34 PM PDT
Length of Visible Light 14h 35m
Length of Day
13h 31m
Tomorrow will be 3m 17s shorter.
Waxing Crescent, 16% of the Moon is Illuminated
Today
Waxing Crescent
Sep 2
First Quarter
Sep 8
Full
Sep 15
Last Quarter
Sep 24
New

Today's Extremes

State Highs State Lows

Community

WunderPhotos

Upload Photos

1,748,314 photos uploaded!

Nearby

Snow Depth

Station Depth Elevation
Alpine Meadows 0 in 3500 ft
Mount Crag 0 in 4050 ft
Olallie Meadows 1 in 3700 ft
Meadows Pass 0 in 3500 ft
Dungeness 0 in 4100 ft

Earthquake Activity

City Distance Mag. Time & Date
No recent earthquake activity has been reported nearby.
Minimum magnitude displayed is 2.5.

Coastal Water Temperatures

Place Temperature
Port Townsend, WA 53.1 °F
Seattle, WA 55.9 °F
Friday Harbor, WA 53.1 °F
Tacoma, WA 55.0 °F

Nearby Weather Stations